Time;durP1;ratioP1;P1;durP2;ratioP2;P2;SDS_P1;SDS_P2;PMS_P1;PMS_P2;Temp;Humidity;BMP_temperature;BMP_pressure;BME280_temperature;BME280_humidity;BME280_pressure;Samples;Min_cycle;Max_cycle;Signal;HPM_P1;HPM_P2
2022/05/24 00:00:22;;;;;;;3.45;1.77;;;;;;;17.91;49.87;99335.88;5061992;28;20061;-69
2022/05/24 00:02:50;;;;;;;4.60;2.08;;;;;;;17.89;49.99;99342.38;5046028;28;20127;-69
2022/05/24 00:05:17;;;;;;;2.90;1.55;;;;;;;17.84;50.03;99337.56;5036980;28;20044;-69
2022/05/24 00:07:45;;;;;;;6.47;2.13;;;;;;;17.81;50.41;99342.38;5044794;28;20044;-67
2022/05/24 00:10:15;;;;;;;6.15;1.95;;;;;;;17.78;50.78;99332.06;5032705;28;20174;-69
2022/05/24 00:12:42;;;;;;;5.45;2.45;;;;;;;17.75;50.39;99327.94;5025848;28;20453;-69
2022/05/24 00:15:19;;;;;;;8.85;2.15;;;;;;;17.72;50.75;99329.03;5017788;28;20055;-68
2022/05/24 00:17:56;;;;;;;9.77;2.70;;;;;;;17.69;51.07;99318.72;5045320;28;20489;-68
2022/05/24 00:20:26;;;;;;;2.72;1.92;;;;;;;17.69;51.17;99328.53;5027625;28;20059;-68
2022/05/24 00:22:54;;;;;;;9.60;1.98;;;;;;;17.68;51.33;99324.22;5045586;28;20458;-68
2022/05/24 00:25:21;;;;;;;6.60;2.00;;;;;;;17.68;51.27;99319.72;5056521;28;20057;-69
2022/05/24 00:27:48;;;;;;;4.88;2.00;;;;;;;17.67;51.43;99318.06;5062378;28;20072;-69
2022/05/24 00:30:16;;;;;;;7.25;2.35;;;;;;;17.69;51.59;99321.38;5042806;28;20045;-69
2022/05/24 00:32:44;;;;;;;6.93;1.90;;;;;;;17.66;51.33;99318.25;5043843;28;20059;-69
2022/05/24 00:35:12;;;;;;;6.97;2.28;;;;;;;17.63;51.64;99315.91;5056975;28;20063;-69
2022/05/24 00:37:40;;;;;;;9.40;2.45;;;;;;;17.60;52.03;99317.06;5039939;28;20059;-69
2022/05/24 00:40:11;;;;;;;4.15;1.98;;;;;;;17.60;51.87;99314.41;5025668;28;20052;-68
2022/05/24 00:42:40;;;;;;;3.05;2.00;;;;;;;17.61;51.84;99312.59;5042743;28;20056;-69
2022/05/24 00:45:17;;;;;;;4.22;2.00;;;;;;;17.60;51.97;99311.75;5033048;28;20076;-69
2022/05/24 00:47:56;;;;;;;6.63;2.33;;;;;;;17.61;51.89;99315.28;5043265;28;20067;-68
2022/05/24 00:50:26;;;;;;;4.00;2.40;;;;;;;17.59;52.41;99307.44;5039674;28;20464;-68
2022/05/24 00:52:56;;;;;;;8.93;2.38;;;;;;;17.57;52.12;99309.44;5026217;28;20048;-68
2022/05/24 00:55:25;;;;;;;9.05;2.58;;;;;;;17.55;52.31;99307.94;5039326;28;20064;-69
2022/05/24 00:58:18;;;;;;;4.93;2.28;;;;;;;17.58;52.76;99307.59;5041817;28;20045;-69
2022/05/24 01:00:45;;;;;;;7.13;2.38;;;;;;;17.57;52.47;99305.94;5040271;28;20060;-69
2022/05/24 01:03:12;;;;;;;3.92;1.98;;;;;;;17.56;52.90;99309.59;5043545;28;20048;-69
2022/05/24 01:05:40;;;;;;;7.20;2.92;;;;;;;17.52;52.85;99314.44;5025139;28;20469;-70
2022/05/24 01:08:07;;;;;;;4.78;2.17;;;;;;;17.50;53.04;99312.94;5026000;28;20047;-70
2022/05/24 01:10:42;;;;;;;4.40;2.13;;;;;;;17.50;53.12;99307.59;5064204;28;20066;-69
2022/05/24 01:13:21;;;;;;;5.05;2.00;;;;;;;17.48;52.98;99323.75;5043350;28;20041;-69
2022/05/24 01:15:51;;;;;;;6.45;2.35;;;;;;;17.45;53.12;99303.63;5045094;28;20127;-69
2022/05/24 01:18:18;;;;;;;2.60;1.80;;;;;;;17.46;53.14;99313.25;5051023;28;20050;-70
2022/05/24 01:20:51;;;;;;;4.35;2.47;;;;;;;17.43;53.39;99310.94;5020860;28;20053;-69
2022/05/24 01:23:29;;;;;;;5.07;2.45;;;;;;;17.42;53.53;99319.06;5059714;28;20040;-70
2022/05/24 01:26:21;;;;;;;4.72;2.20;;;;;;;17.44;53.55;99309.13;5041678;28;20059;-69
2022/05/24 01:28:57;;;;;;;4.03;2.28;;;;;;;17.45;53.46;99305.44;5041737;28;20048;-69
2022/05/24 01:31:25;;;;;;;5.55;2.63;;;;;;;17.45;53.58;99302.78;5027444;28;20059;-69
2022/05/24 01:36:39;;;;;;;;;;;;;;;17.43;53.67;99297.66;5033537;28;20052;-69
2022/05/24 01:39:09;;;;;;;4.30;2.47;;;;;;;17.42;53.89;99314.59;5042735;28;19936;-68
2022/05/24 01:41:44;;;;;;;12.18;2.65;;;;;;;17.42;53.99;99301.28;5021772;28;20146;-69
2022/05/24 01:44:11;;;;;;;;;;;;;;;17.44;53.96;99309.94;5026650;28;20351;-69
2022/05/24 01:46:43;;;;;;;4.88;2.22;;;;;;;17.44;53.91;99307.28;5056472;28;20305;-70
2022/05/24 01:49:14;;;;;;;4.70;1.98;;;;;;;17.44;53.89;99317.91;5033638;28;20063;-69
2022/05/24 01:51:52;;;;;;;3.10;2.20;;;;;;;17.44;53.97;99312.59;5039587;28;20055;-69
2022/05/24 01:54:20;;;;;;;7.72;2.45;;;;;;;17.44;54.13;99312.59;5039511;28;20560;-68
2022/05/24 01:56:57;;;;;;;5.97;2.15;;;;;;;17.43;54.18;99318.09;5045117;28;20048;-70
2022/05/24 01:59:25;;;;;;;5.75;2.30;;;;;;;17.41;54.15;99315.59;5025279;28;20052;-69
2022/05/24 02:01:54;;;;;;;5.25;2.88;;;;;;;17.43;54.46;99323.41;5045777;28;20053;-69
2022/05/24 02:04:22;;;;;;;4.32;2.20;;;;;;;17.41;54.76;99312.94;5043100;28;20139;-69
2022/05/24 02:07:05;;;;;;;7.18;2.25;;;;;;;17.40;55.27;99319.25;5060730;28;20040;-69
2022/05/24 02:09:34;;;;;;;4.40;3.08;;;;;;;17.37;55.58;99318.75;5045134;28;20509;-68
2022/05/24 02:12:06;;;;;;;4.63;2.55;;;;;;;17.35;56.02;99315.44;5060087;28;20048;-68
2022/05/24 02:14:36;;;;;;;4.63;2.38;;;;;;;17.33;56.18;99320.91;5047089;28;20429;-68
2022/05/24 02:17:14;;;;;;;3.88;2.00;;;;;;;17.29;56.56;99318.72;5025628;28;20415;-68
2022/05/24 02:19:45;;;;;;;5.45;2.83;;;;;;;17.28;56.86;99317.91;5042049;28;20064;-68
2022/05/24 02:22:17;;;;;;;4.28;2.35;;;;;;;17.28;56.98;99323.22;5065614;28;20052;-68
2022/05/24 02:24:44;;;;;;;3.60;2.03;;;;;;;17.26;57.65;99327.06;5041982;28;20047;-68
2022/05/24 02:27:12;;;;;;;5.50;2.63;;;;;;;17.23;57.88;99320.22;5050506;28;20067;-69
2022/05/24 02:29:39;;;;;;;8.70;2.17;;;;;;;17.21;58.32;99322.25;5054910;28;20110;-69
2022/05/24 02:32:07;;;;;;;7.03;2.70;;;;;;;17.20;58.56;99318.75;5044717;28;20132;-69
2022/05/24 02:34:34;;;;;;;7.13;2.40;;;;;;;17.18;58.96;99318.06;5042956;28;20059;-69
2022/05/24 02:37:01;;;;;;;7.07;3.15;;;;;;;17.18;59.63;99318.06;5056420;28;20411;-69
2022/05/24 02:39:29;;;;;;;4.65;2.28;;;;;;;17.15;59.68;99317.56;5045765;28;20045;-70
2022/05/24 02:41:56;;;;;;;8.02;2.53;;;;;;;17.13;60.17;99315.06;5022010;28;20056;-70
2022/05/24 02:44:24;;;;;;;13.48;2.83;;;;;;;17.11;60.25;99318.88;5057816;28;20056;-69
2022/05/24 02:46:52;;;;;;;8.52;2.50;;;;;;;17.10;60.52;99319.88;5040211;28;20052;-70
2022/05/24 02:49:19;;;;;;;5.75;3.10;;;;;;;17.07;61.45;99314.91;5036459;28;20091;-69
2022/05/24 02:51:47;;;;;;;3.95;2.30;;;;;;;17.07;60.92;99315.75;5035490;28;20127;-69
2022/05/24 02:54:14;;;;;;;4.22;2.30;;;;;;;17.06;61.03;99324.69;5022639;28;20036;-70
2022/05/24 02:56:43;;;;;;;4.57;2.60;;;;;;;17.06;61.19;99322.03;5040020;28;20051;-68
2022/05/24 02:59:11;;;;;;;5.22;2.70;;;;;;;17.05;60.97;99315.06;5042805;28;20670;-69
2022/05/24 03:01:38;;;;;;;6.15;2.72;;;;;;;17.05;61.21;99312.41;5045812;28;21130;-69
2022/05/24 03:04:05;;;;;;;9.98;2.58;;;;;;;17.06;60.95;99316.72;5067005;28;20049;-69
2022/05/24 03:09:33;;;;;;;8.00;2.85;;;;;;;17.07;60.74;99306.94;5040194;28;20814;-69
2022/05/24 03:09:35;;;;;;;8.90;2.50;;;;;;;17.08;60.84;99313.91;5056582;28;20141;-69
2022/05/24 03:14:54;;;;;;;6.90;2.80;;;;;;;17.07;61.32;99314.91;5027599;28;20059;-68
2022/05/24 03:17:23;;;;;;;4.32;2.58;;;;;;;17.06;61.50;99321.19;5045343;28;20374;-69
2022/05/24 03:19:51;;;;;;;6.00;2.58;;;;;;;17.04;62.40;99312.56;5028191;28;20055;-69
2022/05/24 03:22:19;;;;;;;6.90;2.90;;;;;;;17.01;63.27;99316.38;5046804;28;20094;-69
2022/05/24 03:24:46;;;;;;;7.25;2.67;;;;;;;16.99;63.69;99323.69;5064531;28;20068;-69
2022/05/24 03:27:14;;;;;;;4.60;2.75;;;;;;;16.96;63.85;99316.03;5061576;28;20049;-68
2022/05/24 03:29:43;;;;;;;7.88;3.08;;;;;;;16.95;64.47;99312.56;5061577;28;20063;-69
2022/05/24 03:32:12;;;;;;;3.97;2.65;;;;;;;16.93;65.23;99322.53;5053515;28;20052;-67
2022/05/24 03:34:41;;;;;;;4.07;2.55;;;;;;;16.89;66.33;99325.69;5042526;28;20040;-69
2022/05/24 03:37:09;;;;;;;5.65;2.67;;;;;;;16.86;66.28;99326.00;5059353;28;20094;-68
2022/05/24 03:39:36;;;;;;;7.50;2.67;;;;;;;16.83;66.74;99327.13;5067226;28;20602;-68
2022/05/24 03:42:04;;;;;;;7.97;2.88;;;;;;;16.81;66.48;99329.13;5047287;28;20052;-68
2022/05/24 03:44:32;;;;;;;4.20;2.72;;;;;;;16.83;67.12;99331.63;5028711;28;20056;-69
2022/05/24 03:46:59;;;;;;;6.97;3.05;;;;;;;16.81;67.21;99333.63;5048210;28;20067;-69
2022/05/24 03:49:26;;;;;;;6.45;3.08;;;;;;;16.78;67.00;99325.97;5059528;28;20412;-68
2022/05/24 03:51:53;;;;;;;6.35;2.60;;;;;;;16.78;66.94;99328.63;5030162;28;20068;-68
2022/05/24 03:54:21;;;;;;;4.60;2.72;;;;;;;16.77;67.47;99334.94;5042246;28;20061;-70
2022/05/24 03:59:33;;;;;;;6.13;2.28;;;;;;;16.80;67.62;99338.13;5050391;28;20063;-70
2022/05/24 04:02:01;;;;;;;5.30;2.78;;;;;;;16.82;67.60;99336.09;5045817;28;20048;-69
2022/05/24 04:04:29;;;;;;;5.95;2.63;;;;;;;16.82;67.79;99338.75;5046266;28;20498;-70
2022/05/24 04:06:57;;;;;;;7.07;2.58;;;;;;;16.83;68.04;99339.59;5038642;28;20526;-70
2022/05/24 04:09:24;;;;;;;7.43;3.30;;;;;;;16.81;68.41;99347.75;5047670;28;20046;-70
2022/05/24 04:11:54;;;;;;;6.38;3.13;;;;;;;16.78;68.73;99355.19;5045568;28;20071;-69
2022/05/24 04:14:21;;;;;;;8.10;3.20;;;;;;;16.76;69.92;99359.84;5042986;28;20060;-70
2022/05/24 04:16:48;;;;;;;5.72;3.13;;;;;;;16.73;70.18;99368.13;5036675;28;20056;-69
2022/05/24 04:19:16;;;;;;;9.07;3.35;;;;;;;16.70;71.83;99370.06;5044137;28;20163;-70
2022/05/24 04:21:43;;;;;;;6.55;3.20;;;;;;;16.66;73.03;99363.44;5057562;28;20056;-70
2022/05/24 04:24:10;;;;;;;6.35;3.10;;;;;;;16.54;77.72;99369.19;5023787;28;20159;-70
2022/05/24 04:26:38;;;;;;;8.05;4.00;;;;;;;16.44;80.47;99369.31;5059256;28;20052;-70
2022/05/24 04:29:05;;;;;;;9.07;4.25;;;;;;;16.34;82.30;99364.09;5042661;28;20514;-69
2022/05/24 04:31:34;;;;;;;9.15;3.78;;;;;;;16.32;83.18;99370.56;5060260;28;20063;-69
2022/05/24 04:34:01;;;;;;;7.43;4.25;;;;;;;16.27;84.56;99378.19;5031919;28;20045;-69
2022/05/24 04:36:28;;;;;;;5.43;3.50;;;;;;;16.23;84.84;99380.31;5056561;28;20052;-70
2022/05/24 04:38:55;;;;;;;7.28;4.43;;;;;;;16.19;86.41;99378.97;5063366;28;20146;-70
2022/05/24 04:44:09;;;;;;;5.97;4.45;;;;;;;16.18;87.47;99386.09;5027928;28;20813;-69
2022/05/24 04:49:23;;;;;;;8.57;4.45;;;;;;;16.15;90.68;99382.91;5023054;28;20450;-70
2022/05/24 04:51:54;;;;;;;8.82;4.75;;;;;;;16.13;90.94;99395.53;5057411;28;20071;-69
2022/05/24 04:54:21;;;;;;;10.48;4.90;;;;;;;16.09;91.87;99395.00;5061760;28;20694;-70
2022/05/24 04:56:48;;;;;;;12.70;4.85;;;;;;;16.06;92.72;99400.63;5030899;28;20059;-70
2022/05/24 04:59:18;;;;;;;9.10;5.05;;;;;;;16.11;91.91;99410.75;5048670;28;20091;-69
2022/05/24 05:01:46;;;;;;;8.05;5.00;;;;;;;16.13;95.60;99409.63;5059318;28;20059;-71
2022/05/24 05:04:13;;;;;;;9.02;4.85;;;;;;;16.07;97.10;99404.09;5026947;28;20068;-69
2022/05/24 05:06:45;;;;;;;11.02;6.07;;;;;;;16.06;98.03;99413.06;5055674;28;20716;-70
2022/05/24 05:09:13;;;;;;;9.82;5.20;;;;;;;15.97;100.00;99412.16;5057931;28;20048;-68
2022/05/24 05:11:40;;;;;;;9.55;6.30;;;;;;;15.94;100.00;99425.75;5045520;28;20153;-70
2022/05/24 05:14:08;;;;;;;8.57;6.13;;;;;;;15.79;100.00;99427.28;5043454;28;20106;-69
2022/05/24 05:16:36;;;;;;;12.48;6.45;;;;;;;15.81;100.00;99422.66;5047353;28;20616;-69
2022/05/24 05:19:05;;;;;;;7.30;6.18;;;;;;;15.85;100.00;99431.97;5065213;28;20051;-69
2022/05/24 05:21:33;;;;;;;8.68;6.22;;;;;;;15.91;100.00;99429.53;5040882;28;20060;-70
2022/05/24 05:24:01;;;;;;;8.57;6.78;;;;;;;15.91;100.00;99437.50;5057001;28;20135;-68
2022/05/24 05:26:28;;;;;;;11.68;5.85;;;;;;;15.88;100.00;99447.59;5045842;28;20041;-68
2022/05/24 05:28:55;;;;;;;8.13;5.93;;;;;;;15.86;100.00;99445.09;5044753;28;20095;-70
2022/05/24 05:31:25;;;;;;;7.70;6.90;;;;;;;15.80;100.00;99452.81;5021814;28;20186;-69
2022/05/24 05:33:55;;;;;;;13.15;7.00;;;;;;;15.77;100.00;99463.75;5022990;28;20415;-70
2022/05/24 05:36:23;;;;;;;8.40;7.60;;;;;;;15.76;100.00;99475.34;5045161;28;20136;-69
2022/05/24 05:38:50;;;;;;;12.30;7.72;;;;;;;15.72;100.00;99461.56;5049364;28;20050;-70
2022/05/24 05:41:23;;;;;;;18.67;8.13;;;;;;;15.75;100.00;99457.75;5045439;28;20683;-70
2022/05/24 05:43:51;;;;;;;10.15;6.97;;;;;;;15.80;100.00;99474.06;5048906;28;20190;-70
2022/05/24 05:46:19;;;;;;;10.18;7.60;;;;;;;15.85;100.00;99482.38;5055532;28;20075;-69
2022/05/24 05:48:46;;;;;;;14.23;7.53;;;;;;;15.84;100.00;99501.97;5025545;28;20048;-69
2022/05/24 05:51:15;;;;;;;11.65;7.97;;;;;;;15.85;100.00;99479.72;5033649;28;20048;-69
2022/05/24 05:53:42;;;;;;;13.45;8.40;;;;;;;15.85;100.00;99479.72;5041948;28;20172;-70
2022/05/24 05:56:15;;;;;;;11.68;8.00;;;;;;;15.83;100.00;99482.53;5060022;28;20053;-69
2022/05/24 05:58:42;;;;;;;9.73;7.97;;;;;;;15.84;100.00;99488.69;5045779;28;20045;-69
2022/05/24 06:01:17;;;;;;;11.68;8.20;;;;;;;15.80;100.00;99497.94;5028709;28;20072;-69
2022/05/24 06:03:45;;;;;;;8.70;7.50;;;;;;;15.83;100.00;99493.16;5042354;28;20055;-70
2022/05/24 06:06:16;;;;;;;10.23;7.70;;;;;;;15.91;100.00;99495.06;5032670;28;20079;-68
2022/05/24 06:08:43;;;;;;;9.65;7.95;;;;;;;15.97;100.00;99501.59;5024146;28;20036;-68
2022/05/24 06:11:10;;;;;;;7.57;6.75;;;;;;;16.07;100.00;99505.81;5061804;28;20080;-68
2022/05/24 06:13:38;;;;;;;9.00;7.97;;;;;;;16.14;100.00;99504.22;5062522;28;20641;-68
2022/05/24 06:16:05;;;;;;;10.30;7.90;;;;;;;16.29;100.00;99507.16;5060234;28;20044;-68
2022/05/24 06:18:32;;;;;;;10.73;6.80;;;;;;;16.48;100.00;99513.25;5047530;28;20123;-68
2022/05/24 06:20:59;;;;;;;9.70;7.45;;;;;;;16.41;100.00;99503.28;5040491;28;20060;-69
2022/05/24 06:23:27;;;;;;;9.50;7.45;;;;;;;16.57;100.00;99515.84;5063741;28;20060;-70
2022/05/24 06:25:54;;;;;;;9.32;7.20;;;;;;;16.65;100.00;99502.59;5042294;28;20053;-68
2022/05/24 06:28:21;;;;;;;11.60;7.50;;;;;;;16.63;99.56;99517.03;5028160;28;20051;-68
2022/05/24 06:30:48;;;;;;;11.45;6.97;;;;;;;16.59;99.07;99527.13;5036064;28;20653;-68
2022/05/24 06:33:15;;;;;;;10.27;6.45;;;;;;;16.71;97.87;99525.91;5040549;28;20119;-69
2022/05/24 06:35:44;;;;;;;12.77;7.50;;;;;;;16.73;97.62;99532.91;5026588;28;20048;-69
2022/05/24 06:38:11;;;;;;;9.25;6.85;;;;;;;16.65;97.80;99537.13;5030490;28;20446;-69
2022/05/24 06:40:39;;;;;;;12.00;6.95;;;;;;;16.73;97.10;99540.88;5047642;28;20549;-69
2022/05/24 06:43:06;;;;;;;8.75;6.55;;;;;;;16.84;95.81;99532.63;5044652;28;20079;-69
2022/05/24 06:45:34;;;;;;;6.72;5.35;;;;;;;16.82;92.56;99534.63;5050333;28;20128;-70
2022/05/24 06:48:01;;;;;;;12.32;5.55;;;;;;;16.90;91.98;99550.63;5069585;28;20664;-69
2022/05/24 06:50:28;;;;;;;8.27;5.10;;;;;;;16.94;92.32;99549.31;5068051;28;20059;-69
2022/05/24 06:52:56;;;;;;;8.73;5.72;;;;;;;16.94;92.84;99559.97;5066597;28;20074;-69
2022/05/24 06:55:23;;;;;;;8.52;4.60;;;;;;;16.88;92.45;99555.25;5061529;28;20056;-67
2022/05/24 06:57:51;;;;;;;10.93;4.90;;;;;;;16.88;91.92;99553.41;5054069;28;20067;-68
2022/05/24 07:03:08;;;;;;;6.63;4.03;;;;;;;17.13;89.17;99565.03;5070589;28;20051;-68
2022/05/24 07:05:35;;;;;;;6.47;4.28;;;;;;;17.44;88.30;99557.38;5069809;28;20475;-68
2022/05/24 07:08:04;;;;;;;6.97;4.50;;;;;;;17.25;85.31;99572.75;5074280;28;20058;-68
2022/05/24 07:10:33;;;;;;;11.23;4.53;;;;;;;17.31;85.60;99569.47;5054206;28;20148;-69
2022/05/24 07:13:16;;;;;;;7.03;4.60;;;;;;;17.44;85.79;99581.31;5028264;28;20102;-69
2022/05/24 07:15:43;;;;;;;4.30;3.40;;;;;;;17.35;83.65;99592.09;5048123;28;20052;-70
2022/05/24 07:18:10;;;;;;;4.93;3.30;;;;;;;17.45;82.08;99588.31;5062396;28;20094;-69
2022/05/24 07:20:37;;;;;;;10.18;3.80;;;;;;;17.77;80.93;99589.44;5035466;28;20047;-70
2022/05/24 07:23:25;;;;;;;8.13;2.97;;;;;;;18.17;78.88;99596.69;5072273;28;21640;-68
2022/05/24 07:25:54;;;;;;;4.50;3.22;;;;;;;18.27;76.54;99598.38;5057970;28;20075;-69
2022/05/24 07:28:23;;;;;;;3.45;2.85;;;;;;;18.29;75.29;99617.72;5048335;28;20152;-69
2022/05/24 07:30:50;;;;;;;9.38;3.10;;;;;;;18.15;75.98;99612.03;5013114;28;20036;-70
2022/05/24 07:33:17;;;;;;;4.53;3.03;;;;;;;18.14;75.20;99599.69;5062427;28;20045;-69
2022/05/24 07:35:44;;;;;;;6.03;2.88;;;;;;;18.04;74.44;99612.31;5053923;28;20044;-69
2022/05/24 07:38:12;;;;;;;8.43;3.40;;;;;;;17.84;75.90;99613.59;5059955;28;20405;-70
2022/05/24 07:46:12;;;;;;;6.80;3.25;;;;;;;17.91;75.56;99618.09;5038707;28;19920;-70
2022/05/24 07:48:41;;;;;;;11.80;8.50;;;;;;;17.98;75.06;99610.31;5046357;28;20067;-68
2022/05/24 07:51:08;;;;;;;31.73;24.48;;;;;;;18.10;75.43;99614.34;5028994;28;20064;-68
2022/05/24 07:53:36;;;;;;;6.22;2.90;;;;;;;17.97;75.73;99624.63;5033042;28;20097;-69
2022/05/24 07:56:03;;;;;;;8.85;2.97;;;;;;;17.85;76.16;99628.59;5069207;28;20139;-69
2022/05/24 07:58:31;;;;;;;7.10;2.75;;;;;;;17.92;76.42;99635.78;5045881;28;20194;-69
2022/05/24 08:00:58;;;;;;;4.10;3.10;;;;;;;17.81;76.03;99644.03;5051310;28;20052;-69
2022/05/24 08:03:27;;;;;;;4.75;2.80;;;;;;;17.80;74.81;99636.22;5034225;28;20427;-69
2022/05/24 08:05:54;;;;;;;3.83;3.05;;;;;;;18.10;74.28;99634.78;5043562;28;20040;-70
2022/05/24 08:08:22;;;;;;;4.20;3.05;;;;;;;18.39;72.45;99637.84;5053574;28;20048;-69
2022/05/24 08:10:49;;;;;;;6.80;3.45;;;;;;;18.69;70.64;99647.09;5031383;28;20041;-70
2022/05/24 08:13:19;;;;;;;4.45;2.78;;;;;;;18.68;69.88;99652.53;5078028;28;20475;-70
2022/05/24 08:15:49;;;;;;;3.85;3.00;;;;;;;18.60;69.87;99655.22;5014398;28;20048;-69
2022/05/24 08:18:19;;;;;;;4.35;2.63;;;;;;;18.52;70.58;99661.38;5070965;28;20084;-71
2022/05/24 08:20:46;;;;;;;8.60;3.15;;;;;;;18.33;71.42;99656.34;5043532;28;20075;-70
2022/05/24 08:23:14;;;;;;;5.10;3.17;;;;;;;18.26;71.50;99682.78;5064493;28;20066;-69
2022/05/24 08:25:41;;;;;;;6.25;3.25;;;;;;;18.04;72.26;99665.59;5061475;28;20040;-70
2022/05/24 08:28:08;;;;;;;5.55;3.47;;;;;;;17.60;73.82;99665.69;5054290;28;20143;-69
2022/05/24 08:30:38;;;;;;;25.73;18.77;;;;;;;17.49;74.59;99667.81;5044358;28;20135;-70
2022/05/24 08:33:05;;;;;;;27.30;18.20;;;;;;;17.53;75.14;99667.34;5044988;28;20047;-70
2022/05/24 08:35:36;;;;;;;12.30;6.60;;;;;;;17.40;75.15;99669.59;5064430;28;20133;-69
2022/05/24 08:38:04;;;;;;;5.57;3.50;;;;;;;17.33;75.74;99671.22;5048585;28;20553;-69
2022/05/24 08:40:35;;;;;;;8.40;3.28;;;;;;;17.27;75.98;99685.16;5047823;28;20405;-70
2022/05/24 08:43:11;;;;;;;5.83;2.53;;;;;;;17.13;75.60;99691.88;5034187;28;20048;-69
2022/05/24 08:48:51;;;;;;;3.40;2.45;;;;;;;17.07;76.67;99714.59;5063021;28;20045;-69
2022/05/24 08:51:28;;;;;;;5.70;2.47;;;;;;;17.02;76.10;99722.22;5045853;28;20083;-69
2022/05/24 08:53:59;;;;;;;3.90;2.47;;;;;;;16.88;74.24;99712.09;5060800;28;20401;-68
2022/05/24 08:56:33;;;;;;;5.18;2.22;;;;;;;17.09;74.08;99709.13;5055745;28;20095;-68
2022/05/24 08:59:06;;;;;;;4.47;1.88;;;;;;;17.39;73.74;99710.50;5050342;28;20060;-68
2022/05/24 09:01:34;;;;;;;3.95;2.22;;;;;;;17.51;72.38;99706.56;5036430;28;20048;-74
2022/05/24 09:04:11;;;;;;;4.32;2.00;;;;;;;17.85;71.79;99697.81;5060332;28;20040;-68
2022/05/24 09:06:53;;;;;;;3.30;2.10;;;;;;;18.11;69.75;99687.94;5064542;28;20062;-68
2022/05/24 09:09:38;;;;;;;6.15;2.10;;;;;;;18.38;69.55;99704.66;5066935;28;20053;-70
2022/05/24 09:12:08;;;;;;;4.25;2.15;;;;;;;18.63;68.16;99724.19;5029401;28;20136;-71
2022/05/24 09:15:06;;;;;;;6.68;2.30;;;;;;;18.54;67.36;99710.00;5065051;28;20046;-71
2022/05/24 09:17:47;;;;;;;6.53;2.20;;;;;;;18.62;65.77;99725.19;5040670;28;20056;-71
2022/05/24 09:20:34;;;;;;;1.77;1.38;;;;;;;18.71;64.12;99708.22;5030895;28;20120;-71
2022/05/24 09:23:16;;;;;;;1.63;1.27;;;;;;;18.86;63.15;99711.06;5039353;28;20121;-70
2022/05/24 09:25:56;;;;;;;5.97;1.60;;;;;;;19.07;62.07;99719.41;5039631;28;20052;-70
2022/05/24 09:28:50;;;;;;;4.00;1.40;;;;;;;19.44;61.22;99716.19;5061374;28;20135;-70
2022/05/24 09:31:39;;;;;;;3.72;1.75;;;;;;;19.76;60.87;99716.31;5011648;28;20074;-70
2022/05/24 09:34:22;;;;;;;25.30;20.42;;;;;;;19.83;59.87;99734.16;5047982;28;20044;-71
2022/05/24 09:36:56;;;;;;;24.77;19.25;;;;;;;19.83;60.28;99726.16;5042296;28;20068;-71
2022/05/24 09:39:39;;;;;;;7.38;4.32;;;;;;;19.97;60.06;99729.94;5047051;28;20148;-71
2022/05/24 09:42:10;;;;;;;4.85;1.50;;;;;;;19.76;59.39;99729.66;5030296;28;20414;-70
2022/05/24 09:44:58;;;;;;;3.50;1.40;;;;;;;19.58;58.82;99728.00;5046834;28;20368;-69
2022/05/24 09:47:31;;;;;;;3.72;1.33;;;;;;;19.54;58.63;99726.69;5049220;28;20060;-69
2022/05/24 09:50:20;;;;;;;8.27;1.40;;;;;;;19.46;57.98;99710.72;5029885;28;20447;-71
2022/05/24 09:53:03;;;;;;;2.33;1.40;;;;;;;19.76;58.03;99700.28;5061613;28;20054;-69
2022/05/24 09:55:52;;;;;;;6.32;1.52;;;;;;;20.03;56.75;99710.53;5045555;28;20050;-69
2022/05/24 09:58:29;;;;;;;2.63;1.42;;;;;;;19.58;55.87;99737.84;5042398;28;20049;-69
2022/05/24 10:01:14;;;;;;;1.85;0.98;;;;;;;19.89;56.23;99719.28;5063062;28;20257;-70
2022/05/24 10:03:49;;;;;;;3.40;1.25;;;;;;;20.16;55.18;99718.84;5047758;28;20132;-69
2022/05/24 10:06:22;;;;;;;2.08;1.00;;;;;;;20.63;54.64;99712.59;5040526;28;20070;-70
2022/05/24 10:08:51;;;;;;;1.90;1.15;;;;;;;21.03;53.24;99723.16;5078971;28;20118;-71
2022/05/24 10:11:31;;;;;;;1.23;0.90;;;;;;;21.34;51.54;99723.06;5047334;28;20665;-71
2022/05/24 10:14:17;;;;;;;3.65;1.45;;;;;;;21.20;51.07;99730.03;5064903;28;20071;-71
2022/05/24 10:16:50;;;;;;;2.03;0.98;;;;;;;21.43;50.51;99725.53;5042618;28;20052;-71
2022/05/24 10:19:34;;;;;;;3.22;1.15;;;;;;;21.69;49.66;99727.75;5030154;28;20111;-71
2022/05/24 10:22:23;;;;;;;2.85;1.20;;;;;;;21.69;50.55;99719.69;5047022;28;20044;-71
2022/05/24 10:25:15;;;;;;;2.95;1.10;;;;;;;21.60;49.97;99726.16;5043983;28;20056;-71
2022/05/24 10:27:49;;;;;;;1.60;1.08;;;;;;;21.57;49.04;99705.13;5056814;28;20071;-71
2022/05/24 10:30:23;;;;;;;5.15;1.00;;;;;;;21.59;50.09;99718.31;5043490;28;20519;-70
2022/05/24 10:39:00;;;;;;;3.13;1.10;;;;;;;21.69;48.70;99702.81;5066965;28;20048;-70
2022/05/24 10:41:56;;;;;;;1.75;0.80;;;;;;;21.90;48.73;99710.09;5029173;28;20280;-68
2022/05/24 10:45:04;;;;;;;2.80;1.20;;;;;;;21.98;48.15;99718.06;5025799;28;20139;-69
2022/05/24 10:47:42;;;;;;;1.30;1.02;;;;;;;21.96;48.21;99712.03;5067132;28;20045;-69
2022/05/24 10:50:19;;;;;;;12.85;2.40;;;;;;;21.98;47.96;99723.41;5048218;28;20073;-69
2022/05/24 10:53:05;;;;;;;4.85;1.42;;;;;;;22.34;48.73;99719.97;5046184;28;20045;-70
2022/05/24 10:55:36;;;;;;;1.70;0.90;;;;;;;22.78;46.80;99714.44;5028848;28;20057;-69
2022/05/24 10:58:09;;;;;;;1.80;1.00;;;;;;;23.00;45.92;99739.44;5055583;28;20068;-70
2022/05/24 11:00:48;;;;;;;0.70;0.65;;;;;;;23.28;44.91;99725.22;5035998;28;20052;-69
2022/05/24 11:03:18;;;;;;;2.20;1.02;;;;;;;23.44;44.42;99719.56;5061085;28;20064;-70
2022/05/24 11:05:50;;;;;;;4.97;1.13;;;;;;;23.62;43.94;99711.84;5024766;28;20519;-70
2022/05/24 11:08:47;;;;;;;3.92;1.17;;;;;;;23.60;44.90;99710.41;5066864;28;20375;-69
2022/05/24 11:11:32;;;;;;;2.20;1.33;;;;;;;23.57;43.91;99713.47;5025744;28;20079;-69
2022/05/24 11:14:07;;;;;;;2.75;1.30;;;;;;;23.31;43.91;99709.56;5039197;28;20104;-69
2022/05/24 11:16:44;;;;;;;1.30;0.90;;;;;;;23.67;43.81;99706.72;5028344;28;20049;-69
2022/05/24 11:19:14;;;;;;;2.80;1.27;;;;;;;24.20;43.62;99703.47;5031603;28;20525;-69
2022/05/24 11:21:53;;;;;;;1.58;1.05;;;;;;;24.38;41.36;99705.66;5027884;28;20075;-70
2022/05/24 11:24:27;;;;;;;1.50;0.82;;;;;;;24.64;41.70;99723.72;5044028;28;20048;-69
2022/05/24 11:26:55;;;;;;;1.77;0.75;;;;;;;24.42;40.70;99723.03;5017454;28;20049;-69
2022/05/24 11:29:28;;;;;;;3.42;1.02;;;;;;;24.41;41.75;99716.84;5024447;28;20041;-69
2022/05/24 11:32:06;;;;;;;2.90;1.33;;;;;;;24.06;42.00;99729.50;5043232;28;20048;-69
2022/05/24 11:34:37;;;;;;;4.18;1.30;;;;;;;23.96;42.41;99745.16;5029199;28;20047;-70
2022/05/24 11:37:06;;;;;;;1.83;0.90;;;;;;;23.89;42.39;99728.16;5055164;28;20045;-70
2022/05/24 11:39:36;;;;;;;2.53;1.20;;;;;;;23.81;42.62;99731.81;5046000;28;20054;-69
2022/05/24 11:42:24;;;;;;;2.55;1.10;;;;;;;23.42;43.69;99746.63;5068853;28;20052;-69
2022/05/24 11:44:53;;;;;;;1.20;0.93;;;;;;;23.40;43.09;99734.41;5043756;28;20114;-70
2022/05/24 11:47:37;;;;;;;3.13;1.15;;;;;;;23.37;43.27;99738.34;5026177;28;20079;-69
2022/05/24 11:50:08;;;;;;;1.55;0.80;;;;;;;23.12;43.52;99748.66;5064760;28;20056;-69
2022/05/24 11:52:43;;;;;;;2.47;0.73;;;;;;;22.88;43.93;99749.03;5051837;28;21796;-70
2022/05/24 11:55:50;;;;;;;3.45;1.15;;;;;;;22.89;44.54;99743.50;5037684;28;20708;-69
2022/05/24 11:58:23;;;;;;;2.47;0.95;;;;;;;22.67;44.87;99753.34;5044520;28;20123;-69
2022/05/24 12:01:27;;;;;;;2.03;1.10;;;;;;;22.41;45.11;99747.69;5077827;28;20051;-69
2022/05/24 12:10:01;;;;;;;2.83;0.93;;;;;;;;;;5039970;28;20048;-70
2022/05/24 12:12:33;;;;;;;1.75;1.20;;;;;;;22.74;45.00;99756.94;5054222;28;20102;-69
2022/05/24 12:15:17;;;;;;;1.17;1.08;;;;;;;23.00;44.75;99755.56;5041680;28;20056;-69
2022/05/24 12:17:47;;;;;;;3.42;1.13;;;;;;;23.09;43.88;99761.63;5045897;28;20051;-69
2022/05/24 12:20:34;;;;;;;2.25;1.45;;;;;;;23.30;44.20;99758.09;5046741;28;20693;-69
2022/05/24 12:23:15;;;;;;;3.85;1.35;;;;;;;23.22;44.48;99759.88;5062352;28;20524;-69
2022/05/24 12:25:53;;;;;;;2.35;1.00;;;;;;;22.96;44.57;99752.41;5055877;28;20079;-71
2022/05/24 12:28:24;;;;;;;2.35;1.25;;;;;;;22.79;44.55;99750.19;5060587;28;20154;-69
2022/05/24 12:30:51;;;;;;;1.92;1.02;;;;;;;22.69;44.86;99758.50;5044027;28;20563;-69